Terminal Aerodrome Forecast
Issued by NWS Sioux Falls, SD

Home | Current Version | Previous Version | Graphics & Text | Print | Product List | Glossary Off
Versions: 1 2 3 4 5 6 7 8 9 10 11 12 13 14 15 16

000
FTUS43 KFSD 232320
TAFSUX
TAF
KSUX 232320Z 2400/2424 14005KT P6SM BKN250
     FM240800 15006KT 5SM BR SCT006
     FM241000 15006KT 2SM BR OVC004
     FM241400 23008KT P6SM BKN250=

USA.gov is the U.S. government's official web portal to all federal, state and local government web resources and services.